Time;durP1;ratioP1;P1;durP2;ratioP2;P2;SDS_P1;SDS_P2;PMS_P1;PMS_P2;Temp;Humidity;BMP_temperature;BMP_pressure;BME280_temperature;BME280_humidity;BME280_pressure;Samples;Min_cycle;Max_cycle;Signal;HPM_P1;HPM_P2
2021/09/11 00:00:16;;;;;;;4.68;3.40;;;;;;;17.55;86.39;101244.38;5000700;28;20402;-82
2021/09/11 00:02:43;;;;;;;4.35;2.80;;;;;;;17.54;86.47;101250.59;5011922;28;20241;-81
2021/09/11 00:05:09;;;;;;;5.97;3.88;;;;;;;17.57;86.91;101251.03;5025292;28;20146;-80
2021/09/11 00:07:35;;;;;;;6.68;3.58;;;;;;;17.56;86.95;101244.19;5026859;28;20474;-79
2021/09/11 00:10:00;;;;;;;5.63;3.60;;;;;;;17.61;86.76;101238.38;5021567;28;20040;-81
2021/09/11 00:12:26;;;;;;;6.25;4.05;;;;;;;17.58;86.88;101234.31;5012089;28;20534;-81
2021/09/11 00:14:51;;;;;;;6.70;3.28;;;;;;;17.55;87.25;101239.94;5010133;28;20517;-78
2021/09/11 00:17:17;;;;;;;4.38;3.50;;;;;;;17.56;87.10;101233.72;5010689;28;20036;-81
2021/09/11 00:19:42;;;;;;;9.77;4.53;;;;;;;17.53;87.40;101239.31;5022786;28;20258;-79
2021/09/11 00:22:07;;;;;;;7.38;3.88;;;;;;;17.57;87.36;101237.13;5029596;28;20561;-79
2021/09/11 00:24:33;;;;;;;6.18;4.68;;;;;;;17.61;87.28;101244.44;5007199;28;20044;-78
2021/09/11 00:26:58;;;;;;;9.40;4.28;;;;;;;17.58;87.39;101236.94;5014694;28;20049;-79
2021/09/11 00:29:24;;;;;;;6.20;4.82;;;;;;;17.55;87.48;101245.19;5022674;28;20033;-79
2021/09/11 00:31:50;;;;;;;6.50;4.55;;;;;;;17.54;87.83;101245.38;5005738;28;20037;-80
2021/09/11 00:34:16;;;;;;;6.35;4.38;;;;;;;17.48;87.96;101245.16;5002939;28;20606;-80
2021/09/11 00:36:41;;;;;;;6.10;4.68;;;;;;;17.44;88.25;101250.94;5018950;28;20037;-80
2021/09/11 00:39:07;;;;;;;6.28;4.53;;;;;;;17.52;88.33;101258.69;5002046;28;20044;-80
2021/09/11 00:41:34;;;;;;;6.32;4.90;;;;;;;17.51;88.19;101260.47;5008835;28;20438;-79
2021/09/11 00:43:59;;;;;;;6.88;4.63;;;;;;;17.50;88.42;101261.50;5008558;28;20116;-80
2021/09/11 00:46:25;;;;;;;15.60;5.75;;;;;;;17.55;88.48;101260.91;5017855;28;20083;-81
2021/09/11 00:48:51;;;;;;;10.70;5.57;;;;;;;17.59;88.53;101263.97;5016883;28;20413;-79
2021/09/11 00:51:19;;;;;;;7.40;5.68;;;;;;;17.60;88.76;101260.34;5011747;28;20132;-81
2021/09/11 00:53:45;;;;;;;11.45;7.15;;;;;;;17.65;88.81;101265.81;5013003;28;20124;-79
2021/09/11 00:56:10;;;;;;;10.18;7.05;;;;;;;17.67;88.80;101258.59;5012769;28;20124;-80
2021/09/11 00:58:36;;;;;;;17.38;9.68;;;;;;;17.71;88.73;101265.06;5011675;28;20160;-79
2021/09/11 01:01:03;;;;;;;18.77;11.68;;;;;;;17.67;88.76;101267.25;5018385;28;20056;-79
2021/09/11 01:03:29;;;;;;;18.70;11.93;;;;;;;17.68;88.96;101258.38;5023049;28;20112;-80
2021/09/11 01:05:54;;;;;;;19.27;13.07;;;;;;;17.71;88.96;101270.31;5012235;28;20033;-79
2021/09/11 01:08:21;;;;;;;19.90;12.88;;;;;;;17.81;88.62;101264.72;5012209;28;20482;-77
2021/09/11 01:10:46;;;;;;;20.40;12.82;;;;;;;17.88;88.33;101266.41;5018350;28;20092;-80
2021/09/11 01:13:12;;;;;;;19.15;12.00;;;;;;;17.84;88.12;101267.81;5036621;28;20326;-81
2021/09/11 01:15:40;;;;;;;18.85;13.57;;;;;;;17.80;88.64;101266.53;5000688;28;20029;-80
2021/09/11 01:18:09;;;;;;;22.33;13.45;;;;;;;17.80;88.70;101266.53;5018474;28;20026;-81
2021/09/11 01:20:36;;;;;;;19.73;13.70;;;;;;;17.77;89.21;101273.97;5022723;28;20045;-81
2021/09/11 01:23:02;;;;;;;25.83;14.55;;;;;;;17.77;88.89;101266.13;5016128;28;20510;-80
2021/09/11 01:25:27;;;;;;;20.50;13.98;;;;;;;17.73;89.08;101270.13;4997940;28;20056;-79
2021/09/11 01:27:53;;;;;;;26.85;16.33;;;;;;;17.71;89.06;101273.75;5012411;28;20038;-81
2021/09/11 01:30:21;;;;;;;20.63;14.18;;;;;;;17.66;89.17;101270.88;5017905;28;20445;-79
2021/09/11 01:32:48;;;;;;;26.00;15.93;;;;;;;17.67;89.14;101271.72;5012366;28;20037;-79
2021/09/11 01:35:14;;;;;;;21.83;14.02;;;;;;;17.65;88.97;101278.91;5011570;28;20029;-81
2021/09/11 01:37:40;;;;;;;24.05;14.38;;;;;;;17.60;89.01;101281.31;5019639;28;20116;-80
2021/09/11 01:40:07;;;;;;;21.65;14.20;;;;;;;17.56;89.15;101278.28;5027938;28;20394;-80
2021/09/11 01:42:33;;;;;;;19.33;12.35;;;;;;;17.56;89.08;101270.41;5006437;28;20079;-80
2021/09/11 01:45:01;;;;;;;19.33;13.15;;;;;;;17.57;88.98;101279.06;5016130;28;20541;-80
2021/09/11 01:47:27;;;;;;;22.15;14.02;;;;;;;17.57;88.86;101279.06;5001903;28;20569;-80
2021/09/11 01:49:53;;;;;;;21.05;14.55;;;;;;;17.58;88.82;101270.22;5021024;28;20029;-81
2021/09/11 01:52:22;;;;;;;17.13;12.98;;;;;;;17.55;88.76;101266.16;5026211;28;20057;-80
2021/09/11 01:54:48;;;;;;;19.27;12.40;;;;;;;17.56;88.76;101266.97;5019426;28;20033;-81
2021/09/11 01:57:13;;;;;;;15.55;11.85;;;;;;;17.55;88.46;101270.59;5009076;28;20091;-81
2021/09/11 01:59:40;;;;;;;15.85;11.45;;;;;;;17.55;88.24;101267.97;5016198;28;20021;-81
2021/09/11 02:02:07;;;;;;;20.67;13.23;;;;;;;17.54;87.81;101268.97;5014301;28;20457;-81
2021/09/11 02:04:33;;;;;;;18.67;12.05;;;;;;;17.50;87.91;101279.84;4997133;28;20087;-81
2021/09/11 02:07:01;;;;;;;17.08;10.73;;;;;;;17.49;87.94;101286.06;5029672;28;20490;-81
2021/09/11 02:09:27;;;;;;;17.13;10.88;;;;;;;17.48;87.80;101286.28;5004838;28;20025;-81
2021/09/11 02:11:52;;;;;;;16.73;11.80;;;;;;;17.45;87.88;101286.66;5023947;28;20091;-81
2021/09/11 02:14:18;;;;;;;17.25;11.95;;;;;;;17.44;88.06;101287.66;5007309;28;20048;-81
2021/09/11 02:16:43;;;;;;;16.45;11.52;;;;;;;17.41;87.87;101283.59;5025797;28;20037;-80
2021/09/11 02:19:09;;;;;;;17.40;11.45;;;;;;;17.40;87.71;101289.84;5013636;28;20099;-80
2021/09/11 02:21:34;;;;;;;15.10;11.27;;;;;;;17.38;87.79;101294.44;5007034;28;20044;-80
2021/09/11 02:24:00;;;;;;;15.38;11.57;;;;;;;17.37;87.74;101292.03;5013633;28;20033;-80
2021/09/11 02:26:26;;;;;;;20.35;12.93;;;;;;;17.36;87.85;101295.66;5034193;28;20034;-82
2021/09/11 02:28:54;;;;;;;16.58;11.27;;;;;;;17.34;88.22;101302.91;5015586;28;20071;-82
2021/09/11 02:31:20;;;;;;;18.88;13.20;;;;;;;17.35;88.21;101296.63;5006594;28;20635;-81
2021/09/11 02:33:47;;;;;;;18.17;12.05;;;;;;;17.34;88.46;101295.03;5016294;28;20363;-82
2021/09/11 02:36:13;;;;;;;17.67;11.82;;;;;;;17.31;88.14;101297.03;5006077;28;20430;-81
2021/09/11 02:38:39;;;;;;;16.20;11.65;;;;;;;17.26;88.47;101294.16;5022029;28;20069;-81
2021/09/11 02:41:04;;;;;;;18.52;11.38;;;;;;;17.25;88.70;101294.34;5034960;28;20071;-81
2021/09/11 02:43:30;;;;;;;25.00;13.48;;;;;;;17.26;88.47;101302.03;5018392;28;20045;-79
2021/09/11 02:45:56;;;;;;;20.83;13.25;;;;;;;17.22;88.68;101310.47;5023532;28;20028;-82
2021/09/11 02:48:22;;;;;;;24.75;15.48;;;;;;;17.22;88.76;101300.78;5036112;28;20038;-81
2021/09/11 02:50:48;;;;;;;21.45;14.05;;;;;;;17.17;89.17;101297.09;5027702;28;20122;-81
2021/09/11 02:53:13;;;;;;;24.63;13.05;;;;;;;17.13;89.45;101304.53;5020514;28;20513;-80
2021/09/11 02:55:38;;;;;;;25.33;15.55;;;;;;;17.14;88.98;101300.91;5024410;28;20056;-78
2021/09/11 02:58:04;;;;;;;28.33;16.90;;;;;;;17.07;89.32;101303.47;5012202;28;20391;-80
2021/09/11 03:00:29;;;;;;;26.40;14.60;;;;;;;17.05;89.38;101304.66;5009946;28;20090;-78
2021/09/11 03:02:55;;;;;;;24.25;14.77;;;;;;;17.14;88.59;101311.41;5021384;28;20494;-79
2021/09/11 03:05:21;;;;;;;24.88;13.32;;;;;;;17.02;89.02;101297.97;5021730;28;20029;-81
2021/09/11 03:07:46;;;;;;;19.35;12.68;;;;;;;16.98;89.32;101304.56;5005731;28;20120;-81
2021/09/11 03:10:12;;;;;;;18.60;11.40;;;;;;;16.94;89.31;101311.19;5017516;28;20388;-81
2021/09/11 03:12:37;;;;;;;19.58;13.07;;;;;;;16.93;88.91;101299.91;5016836;28;20044;-82
2021/09/11 03:15:04;;;;;;;18.60;11.25;;;;;;;16.90;88.94;101297.66;5021788;28;20041;-80
2021/09/11 03:17:29;;;;;;;17.80;10.45;;;;;;;16.89;88.92;101301.25;5024622;28;20021;-81
2021/09/11 03:19:54;;;;;;;15.63;10.05;;;;;;;16.87;88.96;101303.25;5012099;28;20091;-81
2021/09/11 03:22:20;;;;;;;21.10;11.18;;;;;;;16.88;88.76;101304.06;5017281;28;20045;-81
2021/09/11 03:24:46;;;;;;;19.45;10.95;;;;;;;16.84;88.58;101308.88;5019415;28;20084;-80
2021/09/11 03:27:11;;;;;;;14.18;10.27;;;;;;;16.84;88.65;101311.50;5005509;28;20072;-80
2021/09/11 03:29:36;;;;;;;17.73;9.65;;;;;;;16.84;88.40;101313.28;5019148;28;20037;-82
2021/09/11 03:32:02;;;;;;;15.57;10.27;;;;;;;16.82;87.83;101312.63;5029538;28;20044;-80
2021/09/11 03:34:28;;;;;;;19.00;9.90;;;;;;;16.77;87.95;101313.19;5003250;28;20037;-83
2021/09/11 03:36:53;;;;;;;12.68;8.40;;;;;;;16.78;88.07;101314.78;5000902;28;20122;-82
2021/09/11 03:39:19;;;;;;;16.77;9.45;;;;;;;16.76;87.62;101322.03;4997917;28;20033;-79
2021/09/11 03:41:44;;;;;;;17.23;10.00;;;;;;;16.73;87.52;101323.22;5021630;28;20029;-79
2021/09/11 03:44:09;;;;;;;17.48;9.30;;;;;;;16.69;87.75;101321.16;5019729;28;20411;-80
2021/09/11 03:46:35;;;;;;;18.08;9.77;;;;;;;16.70;87.73;101328.00;5022849;28;20038;-78
2021/09/11 03:49:00;;;;;;;17.33;7.65;;;;;;;16.63;87.74;101333.19;5020324;28;20087;-80
2021/09/11 03:51:26;;;;;;;18.23;8.80;;;;;;;16.60;87.71;101336.16;5023882;28;20422;-80
2021/09/11 03:53:52;;;;;;;18.45;7.65;;;;;;;16.58;87.86;101337.34;5022071;28;20037;-82
2021/09/11 03:56:17;;;;;;;10.00;7.00;;;;;;;16.58;87.78;101337.34;5003309;28;20043;-81
2021/09/11 03:58:43;;;;;;;11.95;7.22;;;;;;;16.55;87.66;101333.25;5019570;28;20040;-81
2021/09/11 04:01:08;;;;;;;10.93;6.63;;;;;;;16.54;87.63;101336.88;5005264;28;20033;-81
2021/09/11 04:03:35;;;;;;;9.40;6.55;;;;;;;16.52;87.57;101337.06;5013269;28;20044;-81
2021/09/11 04:06:00;;;;;;;12.55;5.90;;;;;;;16.53;87.59;101341.28;5012145;28;20034;-80
2021/09/11 04:08:29;;;;;;;12.43;7.50;;;;;;;16.53;87.40;101345.72;5000095;28;20387;-80
2021/09/11 04:10:55;;;;;;;9.48;6.32;;;;;;;16.51;87.58;101335.44;5011981;28;20510;-80
2021/09/11 04:13:20;;;;;;;10.93;6.25;;;;;;;16.53;87.74;101348.34;5017128;28;20021;-80
2021/09/11 04:15:46;;;;;;;10.15;6.00;;;;;;;16.50;87.66;101341.66;5012743;28;20029;-81
2021/09/11 04:18:11;;;;;;;12.93;6.30;;;;;;;16.51;87.76;101340.66;5018536;28;20079;-81
2021/09/11 04:20:37;;;;;;;9.93;6.88;;;;;;;16.57;87.51;101333.06;5031933;28;20034;-80
2021/09/11 04:23:02;;;;;;;14.77;7.63;;;;;;;16.60;87.24;101327.50;4995627;28;20402;-79
2021/09/11 04:25:28;;;;;;;10.07;6.10;;;;;;;16.52;87.61;101344.91;5016330;28;20025;-80
2021/09/11 04:27:53;;;;;;;9.77;6.82;;;;;;;16.50;87.59;101340.84;5011629;28;20281;-80
2021/09/11 04:30:19;;;;;;;11.07;6.50;;;;;;;16.49;87.82;101340.03;5000155;28;20029;-82
2021/09/11 04:32:44;;;;;;;11.20;6.70;;;;;;;16.46;87.92;101340.41;5019760;28;20530;-80
2021/09/11 04:35:10;;;;;;;7.35;5.18;;;;;;;16.47;87.83;101349.06;5003775;28;20064;-84
2021/09/11 04:37:35;;;;;;;11.23;6.85;;;;;;;16.54;87.38;101345.53;5007125;28;20503;-81
2021/09/11 04:40:01;;;;;;;10.70;6.20;;;;;;;16.59;86.76;101338.94;4995422;28;20044;-79
2021/09/11 04:42:27;;;;;;;11.05;6.28;;;;;;;16.63;86.59;101348.03;5032446;28;20518;-79
2021/09/11 04:44:53;;;;;;;9.73;5.38;;;;;;;16.65;86.12;101346.06;5005632;28;20450;-80
2021/09/11 04:47:18;;;;;;;13.60;6.28;;;;;;;16.56;86.18;101345.38;4993513;28;20025;-79
2021/09/11 04:49:44;;;;;;;10.93;5.55;;;;;;;16.52;86.09;101346.72;5032106;28;20079;-79
2021/09/11 04:52:09;;;;;;;8.38;4.85;;;;;;;16.49;86.23;101347.88;5004489;28;20025;-80
2021/09/11 04:54:35;;;;;;;9.88;5.60;;;;;;;16.47;86.36;101354.31;5015108;28;20112;-80
2021/09/11 04:57:00;;;;;;;8.90;3.97;;;;;;;16.43;86.59;101347.81;5004595;28;20045;-80
2021/09/11 04:59:26;;;;;;;8.68;4.40;;;;;;;16.41;86.58;101353.22;5013512;28;20038;-81
2021/09/11 05:01:51;;;;;;;9.40;4.50;;;;;;;16.40;86.13;101353.41;4996129;28;20041;-80
2021/09/11 05:04:17;;;;;;;8.27;3.88;;;;;;;16.41;86.35;101360.28;5024737;28;20037;-82
2021/09/11 05:06:43;;;;;;;7.40;4.30;;;;;;;16.43;85.13;101366.94;5018318;28;20581;-78
2021/09/11 05:09:08;;;;;;;12.57;4.82;;;;;;;16.46;84.15;101363.13;5018903;28;20502;-78
2021/09/11 05:11:34;;;;;;;8.45;3.90;;;;;;;16.40;84.32;101362.06;5037454;28;20025;-80
2021/09/11 05:13:59;;;;;;;7.65;3.97;;;;;;;16.33;84.41;101371.59;5025955;28;20033;-79
2021/09/11 05:16:25;;;;;;;7.38;3.65;;;;;;;16.30;84.91;101369.38;5037654;28;20100;-81
2021/09/11 05:18:50;;;;;;;6.22;3.53;;;;;;;16.27;84.49;101370.53;5015266;28;20037;-78
2021/09/11 05:21:15;;;;;;;8.18;3.80;;;;;;;16.26;84.47;101375.97;5019119;28;20021;-81
2021/09/11 05:23:41;;;;;;;5.93;3.33;;;;;;;16.23;84.41;101378.94;5014545;28;20033;-78
2021/09/11 05:26:07;;;;;;;8.95;3.40;;;;;;;16.23;84.54;101384.97;5021788;28;20025;-80
2021/09/11 05:28:32;;;;;;;5.78;2.92;;;;;;;16.24;84.57;101380.56;5004577;28;20037;-80
2021/09/11 05:30:58;;;;;;;8.10;3.92;;;;;;;16.24;84.33;101372.72;5021346;28;20116;-80
2021/09/11 05:33:23;;;;;;;5.47;3.28;;;;;;;16.25;84.32;101382.16;5024161;28;20037;-80
2021/09/11 05:35:49;;;;;;;6.15;3.75;;;;;;;16.27;84.12;101374.94;5014217;28;20036;-81
2021/09/11 05:38:15;;;;;;;9.20;3.88;;;;;;;16.24;83.87;101380.56;5008204;28;20281;-80
2021/09/11 05:40:40;;;;;;;4.95;3.20;;;;;;;16.24;83.89;101383.19;5009062;28;20546;-81
2021/09/11 05:43:06;;;;;;;6.32;3.47;;;;;;;16.22;83.94;101385.97;5024879;28;20055;-80
2021/09/11 05:45:31;;;;;;;5.22;3.15;;;;;;;16.24;84.12;101380.56;5014437;28;20021;-81
2021/09/11 05:47:57;;;;;;;5.80;3.10;;;;;;;16.23;84.23;101384.97;5031894;28;20034;-81
2021/09/11 05:50:22;;;;;;;5.28;2.97;;;;;;;16.25;84.18;101390.81;5005407;28;20499;-82
2021/09/11 05:52:48;;;;;;;5.88;3.45;;;;;;;16.24;84.11;101381.38;5032483;28;20033;-80
2021/09/11 05:55:15;;;;;;;5.72;3.30;;;;;;;16.25;83.89;101387.41;5020452;28;20300;-79
2021/09/11 05:57:41;;;;;;;6.88;3.47;;;;;;;16.26;83.65;101383.81;5016964;28;20037;-80
2021/09/11 06:00:07;;;;;;;7.05;3.60;;;;;;;16.29;83.99;101389.50;5020257;28;20087;-80
2021/09/11 06:02:37;;;;;;;8.98;4.30;;;;;;;16.30;83.86;101374.59;5020094;28;20080;-80
2021/09/11 06:05:03;;;;;;;11.02;4.22;;;;;;;16.40;83.53;101383.00;5004279;28;20566;-81
2021/09/11 06:07:28;;;;;;;9.82;3.75;;;;;;;16.43;83.60;101380.03;5004943;28;20687;-81
2021/09/11 06:09:54;;;;;;;7.60;3.25;;;;;;;16.48;83.50;101380.31;5004127;28;20037;-80
2021/09/11 06:12:19;;;;;;;6.82;3.45;;;;;;;16.57;83.34;101385.44;5019130;28;20021;-80
2021/09/11 06:14:45;;;;;;;9.23;4.38;;;;;;;16.73;83.27;101388.66;5027188;28;20095;-80
2021/09/11 06:17:11;;;;;;;8.27;4.00;;;;;;;16.73;83.44;101385.25;5028705;28;20025;-80
2021/09/11 06:19:37;;;;;;;7.57;4.28;;;;;;;16.79;82.80;101399.41;5024582;28;20037;-80
2021/09/11 06:22:03;;;;;;;10.30;3.72;;;;;;;16.71;83.20;101401.13;5036371;28;20029;-78
2021/09/11 06:24:29;;;;;;;11.32;3.88;;;;;;;16.62;83.11;101398.81;5005690;28;20561;-79
2021/09/11 06:26:54;;;;;;;6.90;3.70;;;;;;;16.61;83.42;101399.78;5021598;28;20072;-79
2021/09/11 06:29:21;;;;;;;9.52;3.55;;;;;;;16.65;82.61;101401.88;5001420;28;20037;-80
2021/09/11 06:31:47;;;;;;;10.02;4.07;;;;;;;16.70;82.41;101398.69;5014345;28;20568;-79
2021/09/11 06:34:13;;;;;;;9.23;3.63;;;;;;;16.75;82.55;101398.97;4999261;28;20037;-81
2021/09/11 06:36:38;;;;;;;6.13;3.72;;;;;;;16.65;82.50;101398.41;5004214;28;20059;-81
2021/09/11 06:39:04;;;;;;;8.15;3.90;;;;;;;16.65;82.89;101396.63;5014652;28;20506;-80
2021/09/11 06:41:29;;;;;;;9.15;3.53;;;;;;;16.69;82.63;101405.75;4999694;28;20083;-79
2021/09/11 06:43:55;;;;;;;10.02;4.40;;;;;;;16.87;82.87;101408.00;5013382;28;20090;-79
2021/09/11 06:46:20;;;;;;;13.55;4.60;;;;;;;16.81;82.09;101411.31;5021468;28;20281;-77
2021/09/11 06:48:46;;;;;;;7.97;3.90;;;;;;;16.81;82.33;101408.72;5013200;28;20116;-78
2021/09/11 06:51:12;;;;;;;5.53;3.20;;;;;;;16.95;81.63;101414.94;5020055;28;20064;-78
2021/09/11 06:53:38;;;;;;;8.45;3.58;;;;;;;16.91;80.82;101409.28;5036726;28;20495;-81
2021/09/11 06:56:04;;;;;;;8.57;3.22;;;;;;;16.92;81.33;101415.31;5005616;28;20037;-79
2021/09/11 06:58:29;;;;;;;7.68;3.13;;;;;;;16.93;81.67;101403.84;4993202;28;20042;-78
2021/09/11 07:00:55;;;;;;;10.48;3.78;;;;;;;17.08;80.51;101414.28;5014094;28;20033;-77
2021/09/11 07:03:20;;;;;;;8.57;3.38;;;;;;;17.09;80.26;101411.50;5001934;28;20487;-80
2021/09/11 07:05:46;;;;;;;8.48;2.75;;;;;;;17.21;78.99;101414.44;4996302;28;20099;-77
2021/09/11 07:08:11;;;;;;;12.25;4.28;;;;;;;17.25;79.27;101418.34;5029874;28;20450;-81
2021/09/11 07:10:37;;;;;;;8.90;4.07;;;;;;;17.37;79.54;101412.63;5004065;28;20033;-80
2021/09/11 07:13:02;;;;;;;7.78;3.40;;;;;;;17.67;78.82;101408.88;5038492;28;20034;-77
2021/09/11 07:15:28;;;;;;;6.32;3.28;;;;;;;17.74;78.24;101421.22;5032212;28;20037;-80
2021/09/11 07:17:55;;;;;;;14.60;3.38;;;;;;;17.67;76.75;101427.22;5011215;28;20017;-81
2021/09/11 07:20:21;;;;;;;7.45;2.97;;;;;;;17.65;77.18;101423.97;5008621;28;20514;-79
2021/09/11 07:22:46;;;;;;;9.68;3.20;;;;;;;17.85;77.23;101423.38;5013120;28;20041;-78
2021/09/11 07:25:12;;;;;;;9.35;3.08;;;;;;;17.81;77.40;101433.38;5021919;28;20048;-77
2021/09/11 07:27:37;;;;;;;7.07;2.92;;;;;;;17.81;76.70;101433.38;5000833;28;20039;-79
2021/09/11 07:30:04;;;;;;;10.98;3.08;;;;;;;17.92;76.04;101426.84;5022063;28;20037;-78
2021/09/11 07:32:29;;;;;;;6.18;2.53;;;;;;;17.98;75.40;101436.59;5014206;28;20112;-77
2021/09/11 07:34:55;;;;;;;6.55;2.60;;;;;;;18.02;75.60;101440.44;5031482;28;20453;-77
2021/09/11 07:37:21;;;;;;;6.22;2.55;;;;;;;18.02;76.18;101437.03;5017303;28;20033;-78
2021/09/11 07:39:49;;;;;;;8.98;2.50;;;;;;;17.92;76.00;101445.22;5027552;28;20037;-81
2021/09/11 07:42:16;;;;;;;18.50;4.35;;;;;;;18.13;75.32;101441.75;5002960;28;20041;-77
2021/09/11 07:44:41;;;;;;;6.47;2.55;;;;;;;18.08;75.38;101442.34;5017856;28;20063;-79
2021/09/11 07:47:07;;;;;;;6.88;2.20;;;;;;;18.03;75.93;101438.66;5012138;28;20029;-79
2021/09/11 07:49:33;;;;;;;5.45;2.40;;;;;;;18.15;75.33;101446.81;5018665;28;20033;-77
2021/09/11 07:51:58;;;;;;;9.05;2.78;;;;;;;18.15;75.99;101444.19;5021439;28;20487;-79
2021/09/11 07:54:24;;;;;;;9.57;3.10;;;;;;;18.14;75.30;101459.13;5010999;28;20502;-79
2021/09/11 07:56:49;;;;;;;5.50;2.35;;;;;;;18.05;75.31;101455.81;5020230;28;20033;-80
2021/09/11 07:59:14;;;;;;;5.60;2.70;;;;;;;17.97;75.41;101437.59;5005094;28;20041;-78
2021/09/11 08:01:40;;;;;;;5.65;2.22;;;;;;;17.84;75.71;101446.16;5028977;28;20036;-79
2021/09/11 08:04:05;;;;;;;6.75;2.75;;;;;;;17.93;75.26;101444.22;5002653;28;20040;-79
2021/09/11 08:06:31;;;;;;;5.18;2.33;;;;;;;19.37;71.59;101441.00;5021756;28;20033;-79
2021/09/11 08:08:56;;;;;;;4.25;2.38;;;;;;;20.23;68.10;101440.28;5021313;28;20111;-78
2021/09/11 08:11:22;;;;;;;4.70;2.20;;;;;;;21.35;63.56;101436.66;5006545;28;20032;-79
2021/09/11 08:13:48;;;;;;;5.70;2.17;;;;;;;21.98;62.33;101438.44;5000277;28;20037;-79
2021/09/11 08:16:14;;;;;;;9.45;2.38;;;;;;;22.55;60.11;101431.22;5017548;28;20060;-77
2021/09/11 08:18:40;;;;;;;3.55;1.85;;;;;;;22.81;59.05;101436.41;5017534;28;20450;-78
2021/09/11 08:21:05;;;;;;;3.83;1.67;;;;;;;22.07;61.23;101446.91;4999409;28;20042;-78
2021/09/11 08:23:31;;;;;;;10.10;2.00;;;;;;;21.91;61.30;101443.81;5026748;28;20071;-79
2021/09/11 08:25:57;;;;;;;7.13;2.13;;;;;;;21.50;62.19;101442.47;5013388;28;20027;-81
2021/09/11 08:28:22;;;;;;;5.00;1.83;;;;;;;21.74;62.32;101448.81;4998185;28;20033;-82
2021/09/11 08:30:48;;;;;;;5.82;1.92;;;;;;;22.00;62.16;101444.34;5011567;28;20087;-79
2021/09/11 08:33:15;;;;;;;5.40;1.77;;;;;;;21.90;61.61;101442.16;5003587;28;20040;-79
2021/09/11 08:35:41;;;;;;;10.55;2.05;;;;;;;22.17;60.14;101436.69;4998689;28;20041;-82
2021/09/11 08:38:06;;;;;;;4.80;1.83;;;;;;;22.74;58.80;101439.94;5020070;28;20494;-79
2021/09/11 08:40:32;;;;;;;9.10;2.20;;;;;;;22.25;59.72;101439.06;5019989;28;20036;-79
2021/09/11 08:42:58;;;;;;;3.50;2.10;;;;;;;22.09;60.50;101434.28;4995508;28;20033;-78
2021/09/11 08:45:23;;;;;;;4.57;2.15;;;;;;;22.21;60.86;101437.03;5011716;28;20120;-78
2021/09/11 08:47:49;;;;;;;3.55;1.80;;;;;;;22.08;60.58;101440.63;5012658;28;20034;-82
2021/09/11 08:50:17;;;;;;;5.15;1.80;;;;;;;22.32;60.44;101434.53;4999289;28;20048;-79
2021/09/11 08:52:47;;;;;;;4.43;2.08;;;;;;;22.78;59.07;101427.09;5017324;28;20025;-79
2021/09/11 08:55:14;;;;;;;5.88;1.60;;;;;;;23.44;57.77;101421.97;5034298;28;20090;-77
2021/09/11 08:57:39;;;;;;;3.25;1.50;;;;;;;23.92;55.99;101414.91;5015532;28;20021;-78
2021/09/11 09:00:07;;;;;;;6.78;1.90;;;;;;;23.84;55.67;101421.34;5025716;28;20033;-79
2021/09/11 09:02:34;;;;;;;4.10;1.52;;;;;;;23.65;54.49;101425.91;5015555;28;20491;-79
2021/09/11 09:05:02;;;;;;;4.18;1.55;;;;;;;23.99;54.11;101427.00;5005268;28;20045;-79
2021/09/11 09:07:35;;;;;;;5.50;1.83;;;;;;;24.39;54.92;101422.81;5020065;28;20072;-81
2021/09/11 09:10:02;;;;;;;;;;;;;;;24.48;54.36;101432.03;5007969;28;20042;-80
2021/09/11 09:12:34;;;;;;;8.13;1.90;;;;;;;24.45;53.25;101425.34;5014257;28;19917;-78
2021/09/11 09:15:10;;;;;;;3.60;1.75;;;;;;;24.40;54.24;101425.25;5002301;28;20041;-83
2021/09/11 09:17:43;;;;;;;4.78;1.75;;;;;;;23.57;56.41;101436.84;5007232;28;20073;-83
2021/09/11 09:20:17;;;;;;;3.45;1.75;;;;;;;23.06;56.48;101437.16;5013568;28;20087;-80
2021/09/11 09:22:44;;;;;;;3.08;1.75;;;;;;;23.03;56.75;101436.75;5001580;28;20577;-78
2021/09/11 09:25:28;;;;;;;3.15;1.50;;;;;;;23.34;56.56;101433.09;5036069;28;20407;-82
2021/09/11 09:28:06;;;;;;;5.40;2.28;;;;;;;22.77;57.58;101440.53;4998289;28;20048;-78
2021/09/11 09:30:38;;;;;;;3.17;1.90;;;;;;;22.84;57.72;101443.91;5000380;28;20399;-79
2021/09/11 09:33:04;;;;;;;3.25;1.60;;;;;;;23.22;57.07;101432.25;5030265;28;20041;-81
2021/09/11 09:35:30;;;;;;;5.28;2.08;;;;;;;23.73;57.41;101441.44;5005061;28;20033;-82
2021/09/11 09:38:04;;;;;;;4.95;2.03;;;;;;;23.90;55.68;101444.25;5024023;28;20040;-81
2021/09/11 09:40:38;;;;;;;4.80;1.85;;;;;;;24.07;55.53;101442.56;5011343;28;20072;-79
2021/09/11 09:43:05;;;;;;;5.50;1.58;;;;;;;24.29;55.27;101445.41;5029577;28;20548;-80
2021/09/11 09:45:32;;;;;;;4.13;1.50;;;;;;;24.28;54.45;101437.72;5012904;28;20431;-82
2021/09/11 09:48:05;;;;;;;3.53;1.75;;;;;;;24.54;54.94;101439.06;5021582;28;20017;-78
2021/09/11 09:50:34;;;;;;;4.03;2.22;;;;;;;24.63;54.09;101440.31;4997841;28;20049;-81
2021/09/11 09:52:59;;;;;;;4.30;1.55;;;;;;;24.09;54.43;101452.91;5020265;28;20087;-80
2021/09/11 09:55:25;;;;;;;2.45;1.50;;;;;;;23.88;54.19;101438.41;5002224;28;20114;-79
2021/09/11 09:57:51;;;;;;;2.42;1.50;;;;;;;23.70;56.05;101449.88;5010923;28;20048;-77
2021/09/11 10:00:17;;;;;;;4.80;2.03;;;;;;;23.35;55.87;101455.06;4999069;28;20057;-78
2021/09/11 10:02:43;;;;;;;4.72;1.55;;;;;;;22.91;57.70;101456.00;5019167;28;20064;-78
2021/09/11 10:05:13;;;;;;;3.70;1.73;;;;;;;22.82;58.61;101452.06;4997278;28;20037;-76
2021/09/11 10:08:08;;;;;;;4.32;1.70;;;;;;;22.77;58.88;101445.81;4999089;28;20422;-78
2021/09/11 10:10:45;;;;;;;4.47;1.50;;;;;;;22.92;59.33;101452.34;5002455;28;20447;-76
2021/09/11 10:13:16;;;;;;;5.25;2.60;;;;;;;22.84;59.47;101460.56;5011391;28;20483;-77
2021/09/11 10:15:55;;;;;;;3.63;1.80;;;;;;;22.70;60.43;101454.63;5034019;28;20301;-76
2021/09/11 10:18:30;;;;;;;4.47;2.08;;;;;;;22.69;59.77;101455.66;5019260;28;20056;-77
2021/09/11 10:21:40;;;;;;;4.88;2.67;;;;;;;22.98;59.93;101448.00;5020338;28;20116;-76
2021/09/11 10:24:15;;;;;;;5.10;2.55;;;;;;;23.50;58.55;101445.66;5003530;28;20053;-76
2021/09/11 10:26:46;;;;;;;4.50;2.53;;;;;;;23.71;58.13;101451.47;5031600;28;20037;-77
2021/09/11 10:29:37;;;;;;;4.88;2.60;;;;;;;23.65;56.57;101452.38;5003510;28;20030;-76
2021/09/11 10:32:18;;;;;;;5.18;2.20;;;;;;;23.67;57.98;101443.16;5016902;28;20095;-80
2021/09/11 10:34:53;;;;;;;3.72;2.20;;;;;;;23.46;57.35;101449.81;5004609;28;20033;-79
2021/09/11 10:37:40;;;;;;;5.68;2.17;;;;;;;22.65;58.08;101445.75;5032289;28;20040;-80
2021/09/11 10:40:25;;;;;;;6.15;2.20;;;;;;;22.21;59.27;101445.78;4998507;28;20041;-79
2021/09/11 10:43:09;;;;;;;4.60;2.15;;;;;;;22.13;60.17;101448.69;5024280;28;20048;-81
2021/09/11 10:45:53;;;;;;;3.05;1.90;;;;;;;22.08;60.18;101445.91;5006265;28;20041;-82
2021/09/11 10:48:37;;;;;;;5.20;2.22;;;;;;;22.10;61.17;101444.66;5031593;28;20602;-81
2021/09/11 10:51:18;;;;;;;7.40;2.50;;;;;;;22.11;61.77;101445.44;5002933;28;20545;-79
2021/09/11 10:54:09;;;;;;;3.55;2.13;;;;;;;22.26;62.28;101451.22;5013162;28;20414;-80
2021/09/11 10:56:37;;;;;;;4.40;2.13;;;;;;;22.21;60.76;101445.78;5018584;28;20030;-81
2021/09/11 10:59:18;;;;;;;2.92;2.15;;;;;;;22.05;61.17;101448.97;5016942;28;20045;-80
2021/09/11 11:02:01;;;;;;;4.05;2.20;;;;;;;22.30;62.16;101449.78;5025108;28;20099;-78
2021/09/11 11:04:35;;;;;;;5.13;2.03;;;;;;;22.53;61.58;101451.78;4991980;28;20041;-78
2021/09/11 11:07:03;;;;;;;4.43;2.17;;;;;;;22.76;61.12;101439.72;5013900;28;20037;-78
2021/09/11 11:09:33;;;;;;;4.88;2.05;;;;;;;22.92;60.34;101435.66;5020016;28;20036;-80
2021/09/11 11:11:59;;;;;;;3.70;1.83;;;;;;;22.98;59.93;101445.38;5012603;28;20138;-81
2021/09/11 11:14:25;;;;;;;4.53;2.20;;;;;;;22.89;60.58;101446.69;5035623;28;20026;-79
2021/09/11 11:16:52;;;;;;;3.20;1.85;;;;;;;23.01;60.08;101446.75;5030679;28;20068;-81
2021/09/11 11:19:31;;;;;;;4.55;2.00;;;;;;;23.08;59.13;101445.66;5013140;28;20030;-78